createdAt,value
2022-09-16T00:01:13.599Z,13.50
2022-09-16T00:03:42.041Z,13.50
2022-09-16T00:06:19.515Z,13.50
2022-09-16T00:08:47.903Z,13.50
2022-09-16T00:11:16.528Z,13.50
2022-09-16T00:13:44.571Z,13.40
2022-09-16T00:16:19.483Z,13.40
2022-09-16T00:18:47.446Z,13.40
2022-09-16T00:21:15.797Z,13.40
2022-09-16T00:23:43.713Z,13.40
2022-09-16T00:26:11.642Z,13.40
2022-09-16T00:28:39.486Z,13.40
2022-09-16T00:31:07.831Z,13.40
2022-09-16T00:33:37.107Z,13.40
2022-09-16T00:36:11.089Z,13.40
2022-09-16T00:38:39.745Z,13.40
2022-09-16T00:41:08.792Z,13.40
2022-09-16T00:43:56.763Z,13.40
2022-09-16T00:46:31.383Z,13.40
2022-09-16T00:49:04.455Z,13.30
2022-09-16T00:51:32.742Z,13.30
2022-09-16T00:54:05.617Z,13.30
2022-09-16T00:56:38.483Z,13.30
2022-09-16T00:59:10.635Z,13.30
2022-09-16T01:01:39.975Z,13.30
2022-09-16T01:04:19.044Z,13.30
2022-09-16T01:06:47.149Z,13.30
2022-09-16T01:09:15.575Z,13.30
2022-09-16T01:11:43.417Z,13.30
2022-09-16T01:14:29.025Z,13.30
2022-09-16T01:17:03.641Z,13.30
2022-09-16T01:20:02.016Z,13.20
2022-09-16T01:22:47.000Z,13.20
2022-09-16T01:25:33.605Z,13.20
2022-09-16T01:28:34.776Z,13.30
2022-09-16T01:31:13.414Z,13.30
2022-09-16T01:33:49.619Z,13.30
2022-09-16T01:36:32.140Z,13.30
2022-09-16T01:39:13.684Z,13.30
2022-09-16T01:41:55.121Z,13.30
2022-09-16T01:44:27.844Z,13.30
2022-09-16T01:47:03.292Z,13.30
2022-09-16T01:49:39.842Z,13.30
2022-09-16T01:52:17.848Z,13.30
2022-09-16T01:54:50.663Z,13.30
2022-09-16T01:57:22.714Z,13.30
2022-09-16T01:59:55.353Z,13.30
2022-09-16T02:02:28.245Z,13.40
2022-09-16T02:04:58.355Z,13.40
2022-09-16T02:07:31.099Z,13.50
2022-09-16T02:10:06.527Z,13.50
2022-09-16T02:12:38.230Z,13.50
2022-09-16T02:15:10.044Z,13.50
2022-09-16T02:17:46.890Z,13.50
2022-09-16T02:20:20.284Z,13.50
2022-09-16T02:22:52.820Z,13.50
2022-09-16T02:25:21.614Z,13.50
2022-09-16T02:27:51.180Z,13.50
2022-09-16T02:30:22.146Z,13.50
2022-09-16T02:32:55.803Z,13.40
2022-09-16T02:35:26.978Z,13.50
2022-09-16T02:37:59.413Z,13.50
2022-09-16T02:40:34.028Z,13.50
2022-09-16T02:43:02.602Z,13.50
2022-09-16T02:45:39.873Z,13.50
2022-09-16T02:48:14.091Z,13.50
2022-09-16T02:50:48.757Z,13.60
2022-09-16T02:53:35.324Z,13.60
2022-09-16T02:56:08.343Z,13.60
2022-09-16T02:58:36.398Z,13.60
2022-09-16T03:01:05.777Z,13.60
2022-09-16T03:03:35.013Z,13.60
2022-09-16T03:06:19.725Z,13.60
2022-09-16T03:08:49.173Z,13.60
2022-09-16T03:11:30.622Z,13.70
2022-09-16T03:14:20.899Z,13.70
2022-09-16T03:16:58.219Z,13.70
2022-09-16T03:19:38.278Z,13.70
2022-09-16T03:22:14.174Z,13.70
2022-09-16T03:24:55.667Z,13.60
2022-09-16T03:27:32.069Z,13.60
2022-09-16T03:30:06.059Z,13.60
2022-09-16T03:32:39.031Z,13.60
2022-09-16T03:35:13.079Z,13.50
2022-09-16T03:37:41.969Z,13.50
2022-09-16T03:40:12.908Z,13.50
2022-09-16T03:42:41.271Z,13.50
2022-09-16T03:45:13.772Z,13.50
2022-09-16T03:47:41.850Z,13.50
2022-09-16T03:50:11.676Z,13.50
2022-09-16T03:52:39.621Z,13.40
2022-09-16T03:55:08.768Z,13.40
2022-09-16T03:57:36.711Z,13.40
2022-09-16T04:00:05.609Z,13.40
2022-09-16T04:02:33.553Z,13.40
2022-09-16T04:05:01.442Z,13.40
2022-09-16T04:07:30.669Z,13.40
2022-09-16T04:09:58.678Z,13.40
2022-09-16T04:12:26.555Z,13.40
2022-09-16T04:14:54.553Z,13.40
2022-09-16T04:17:22.490Z,13.30
2022-09-16T04:19:51.099Z,13.40
2022-09-16T04:22:19.025Z,13.40
2022-09-16T04:24:48.191Z,13.40
2022-09-16T04:27:16.028Z,13.40
2022-09-16T04:29:43.868Z,13.40
2022-09-16T04:32:11.777Z,13.40
2022-09-16T04:34:39.650Z,13.30
2022-09-16T04:37:07.579Z,13.30
2022-09-16T04:39:35.468Z,13.20
2022-09-16T04:42:06.183Z,13.10
2022-09-16T04:44:34.081Z,13.10
2022-09-16T04:47:02.092Z,13.00
2022-09-16T04:49:29.947Z,12.90
2022-09-16T04:51:57.798Z,12.90
2022-09-16T04:54:25.726Z,12.80
2022-09-16T04:56:53.581Z,12.80
2022-09-16T04:59:23.024Z,12.70
2022-09-16T05:01:50.976Z,12.60
2022-09-16T05:04:19.008Z,12.60
2022-09-16T05:06:46.907Z,12.60
2022-09-16T05:09:14.844Z,12.60
2022-09-16T05:11:43.194Z,12.60
2022-09-16T05:14:15.797Z,12.60
2022-09-16T05:16:45.469Z,12.70
2022-09-16T05:19:14.626Z,12.70
2022-09-16T05:21:43.035Z,12.70
2022-09-16T05:24:12.847Z,12.60
2022-09-16T05:26:43.890Z,12.60
2022-09-16T05:29:15.784Z,12.60
2022-09-16T05:31:47.206Z,12.70
2022-09-16T05:34:17.497Z,12.70
2022-09-16T05:36:47.577Z,12.70
2022-09-16T05:39:23.330Z,12.80
2022-09-16T05:41:55.249Z,12.90
2022-09-16T05:44:23.548Z,12.90
2022-09-16T05:46:53.229Z,13.00
2022-09-16T05:49:21.633Z,13.00
2022-09-16T05:51:50.355Z,13.10
2022-09-16T05:54:19.190Z,13.10
2022-09-16T05:56:47.776Z,13.20
2022-09-16T05:59:17.111Z,13.20
2022-09-16T06:01:46.000Z,13.30
2022-09-16T06:04:16.652Z,13.30
2022-09-16T06:06:46.870Z,13.30
2022-09-16T06:09:17.938Z,13.40
2022-09-16T06:11:48.143Z,13.40
2022-09-16T06:14:17.037Z,13.50
2022-09-16T06:16:45.237Z,13.60
2022-09-16T06:19:17.212Z,13.60
2022-09-16T06:21:46.679Z,13.70
2022-09-16T06:24:16.431Z,13.70
2022-09-16T06:26:46.042Z,13.80
2022-09-16T06:29:14.990Z,13.80
2022-09-16T06:31:43.359Z,13.90
2022-09-16T06:34:18.374Z,14.00
2022-09-16T06:36:46.757Z,14.10
2022-09-16T06:39:16.194Z,14.20
2022-09-16T06:41:44.199Z,14.30
2022-09-16T06:44:12.159Z,14.30
2022-09-16T06:46:40.195Z,14.40
2022-09-16T06:49:10.885Z,14.40
2022-09-16T06:51:40.142Z,14.50
2022-09-16T06:54:09.472Z,14.60
2022-09-16T06:56:39.278Z,14.80
2022-09-16T06:59:07.826Z,14.80
2022-09-16T07:01:35.989Z,14.90
2022-09-16T07:04:05.896Z,14.90
2022-09-16T07:09:24.030Z,15.00
2022-09-16T07:11:51.869Z,15.00
2022-09-16T07:14:19.834Z,15.10
2022-09-16T07:16:48.010Z,15.20
2022-09-16T07:19:16.042Z,15.20
2022-09-16T07:21:43.913Z,15.30
2022-09-16T07:24:13.924Z,15.40
2022-09-16T07:26:44.344Z,15.50
2022-09-16T07:29:14.331Z,15.70
2022-09-16T07:31:42.866Z,15.80
2022-09-16T07:34:12.526Z,16.00
2022-09-16T07:36:42.059Z,16.30
2022-09-16T07:39:10.502Z,16.40
2022-09-16T07:41:40.251Z,16.40
2022-09-16T07:44:12.247Z,16.40
2022-09-16T07:46:40.903Z,16.40
2022-09-16T07:49:10.577Z,16.40
2022-09-16T07:51:38.433Z,16.50
2022-09-16T07:54:09.228Z,16.50
2022-09-16T07:56:40.218Z,16.40
2022-09-16T07:59:17.472Z,16.40
2022-09-16T08:01:48.095Z,16.60
2022-09-16T08:04:16.093Z,16.80
2022-09-16T08:06:44.016Z,17.10
2022-09-16T08:12:00.399Z,17.50
2022-09-16T08:14:29.724Z,17.60
2022-09-16T08:16:57.616Z,17.60
2022-09-16T08:19:25.564Z,17.60
2022-09-16T08:21:53.397Z,17.50
2022-09-16T08:24:21.338Z,17.40
2022-09-16T08:26:49.229Z,17.40
2022-09-16T08:29:17.553Z,17.40
2022-09-16T08:31:47.149Z,17.50
2022-09-16T08:34:15.908Z,17.50
2022-09-16T08:36:44.069Z,17.50
2022-09-16T08:39:12.848Z,17.60
2022-09-16T08:41:55.174Z,17.70
2022-09-16T08:44:31.049Z,17.70
2022-09-16T08:47:02.235Z,17.80
2022-09-16T08:49:38.242Z,17.90
2022-09-16T08:52:14.314Z,18.10
2022-09-16T08:54:45.990Z,18.40
2022-09-16T08:57:18.548Z,18.70
2022-09-16T08:59:50.728Z,18.90
2022-09-16T09:02:38.947Z,19.20
2022-09-16T09:05:16.291Z,19.60
2022-09-16T09:07:55.335Z,20.10
2022-09-16T09:10:29.723Z,20.40
2022-09-16T09:13:05.193Z,20.50
2022-09-16T09:15:41.654Z,20.60
2022-09-16T09:18:24.893Z,20.70
2022-09-16T09:20:58.564Z,20.90
2022-09-16T09:23:42.883Z,21.40
2022-09-16T09:26:17.042Z,21.90
2022-09-16T09:29:08.216Z,22.40
2022-09-16T09:31:48.619Z,23.80
2022-09-16T09:34:34.971Z,25.10
2022-09-16T09:37:20.092Z,27.40
2022-09-16T09:40:00.798Z,28.00
2022-09-16T09:42:32.673Z,27.70
2022-09-16T09:45:04.763Z,27.60
2022-09-16T09:47:36.887Z,27.30
2022-09-16T09:50:20.910Z,26.90
2022-09-16T09:52:56.599Z,25.80
2022-09-16T09:55:26.872Z,24.90
2022-09-16T09:58:06.128Z,23.90
2022-09-16T10:00:34.069Z,23.20
2022-09-16T10:03:11.876Z,22.60
2022-09-16T10:05:42.226Z,22.50
2022-09-16T10:08:20.076Z,22.30
2022-09-16T10:10:51.446Z,22.70
2022-09-16T10:13:19.944Z,25.80
2022-09-16T10:15:52.018Z,28.00
2022-09-16T10:18:29.848Z,29.60
2022-09-16T10:21:04.242Z,30.80
2022-09-16T10:23:32.987Z,30.30
2022-09-16T10:26:17.346Z,29.70
2022-09-16T10:28:55.338Z,29.70
2022-09-16T10:31:25.252Z,30.20
2022-09-16T10:33:53.877Z,31.90
2022-09-16T10:36:26.318Z,34.10
2022-09-16T10:39:02.295Z,35.10
2022-09-16T10:41:36.114Z,34.90
2022-09-16T10:44:08.411Z,35.80
2022-09-16T10:46:36.604Z,37.10
2022-09-16T10:49:11.623Z,36.80
2022-09-16T10:51:40.806Z,37.40
2022-09-16T10:54:27.956Z,36.80
2022-09-16T10:56:56.062Z,35.60
2022-09-16T10:59:23.933Z,34.60
2022-09-16T11:02:00.488Z,35.10
2022-09-16T11:04:51.181Z,35.80
2022-09-16T11:07:33.087Z,36.10
2022-09-16T11:10:10.540Z,36.30
2022-09-16T11:13:03.415Z,36.10
2022-09-16T11:15:40.729Z,34.50
2022-09-16T11:18:25.587Z,32.40
2022-09-16T11:21:09.266Z,30.20
2022-09-16T11:23:50.232Z,28.30
2022-09-16T11:26:26.478Z,26.90
2022-09-16T11:29:14.730Z,26.20
2022-09-16T11:31:54.198Z,25.70
2022-09-16T11:34:34.150Z,25.10
2022-09-16T11:37:09.557Z,24.60
2022-09-16T11:39:53.489Z,24.20
2022-09-16T11:42:30.231Z,23.90
2022-09-16T11:45:08.242Z,23.80
2022-09-16T11:47:58.591Z,23.60
2022-09-16T11:50:40.218Z,23.40
2022-09-16T11:53:39.425Z,23.20
2022-09-16T11:56:16.379Z,22.90
2022-09-16T11:58:48.148Z,22.70
2022-09-16T12:01:27.030Z,22.50
2022-09-16T12:04:00.662Z,22.30
2022-09-16T12:06:34.876Z,22.10
2022-09-16T12:09:07.759Z,21.90
2022-09-16T12:11:43.801Z,21.80
2022-09-16T12:14:17.450Z,21.60
2022-09-16T12:16:50.507Z,21.50
2022-09-16T12:19:23.929Z,21.20
2022-09-16T12:21:58.003Z,21.10
2022-09-16T12:24:34.074Z,21.00
2022-09-16T12:27:10.600Z,21.00
2022-09-16T12:29:45.203Z,21.00
2022-09-16T12:32:18.907Z,21.00
2022-09-16T12:34:55.445Z,20.80
2022-09-16T12:37:32.800Z,20.50
2022-09-16T12:40:01.666Z,20.10
2022-09-16T12:43:08.407Z,19.60
2022-09-16T12:46:03.349Z,18.90
2022-09-16T12:49:02.434Z,18.10
2022-09-16T12:52:07.005Z,17.40
2022-09-16T12:55:09.024Z,16.70
2022-09-16T12:57:48.644Z,16.10
2022-09-16T13:00:21.967Z,15.80
2022-09-16T13:02:54.656Z,15.50
2022-09-16T13:05:30.880Z,15.40
2022-09-16T13:08:05.135Z,15.40
2022-09-16T13:10:54.654Z,15.50
2022-09-16T13:13:32.166Z,15.80
2022-09-16T13:16:03.265Z,16.00
2022-09-16T13:18:43.996Z,16.10
2022-09-16T13:21:26.261Z,16.10
2022-09-16T13:24:02.617Z,16.20
2022-09-16T13:26:40.965Z,16.10
2022-09-16T13:29:43.748Z,16.00
2022-09-16T13:32:28.474Z,15.90
2022-09-16T13:35:06.292Z,15.70
2022-09-16T13:37:34.158Z,15.60
2022-09-16T13:40:17.188Z,15.50
2022-09-16T13:42:45.147Z,15.50
2022-09-16T13:45:33.654Z,15.50
2022-09-16T13:48:07.637Z,15.60
2022-09-16T13:50:39.000Z,15.70
2022-09-16T13:53:11.250Z,15.90
2022-09-16T13:55:42.418Z,16.10
2022-09-16T13:58:19.358Z,16.40
2022-09-16T14:01:00.243Z,16.70
2022-09-16T14:03:47.398Z,16.90
2022-09-16T14:06:52.263Z,17.00
2022-09-16T14:09:32.533Z,16.90
2022-09-16T14:12:08.376Z,16.70
2022-09-16T14:14:52.885Z,16.70
2022-09-16T14:17:23.981Z,16.70
2022-09-16T14:20:01.578Z,16.70
2022-09-16T14:22:31.659Z,16.80
2022-09-16T14:25:06.508Z,17.30
2022-09-16T14:27:39.270Z,17.80
2022-09-16T14:30:14.740Z,18.30
2022-09-16T14:32:42.878Z,18.70
2022-09-16T14:35:13.498Z,18.70
2022-09-16T14:37:47.598Z,18.90
2022-09-16T14:40:19.558Z,18.90
2022-09-16T14:42:51.398Z,18.50
2022-09-16T14:45:19.971Z,18.10
2022-09-16T14:47:52.119Z,17.80
2022-09-16T14:50:23.268Z,17.80
2022-09-16T14:52:57.968Z,17.60
2022-09-16T14:55:31.065Z,17.30
2022-09-16T14:57:59.769Z,17.20
2022-09-16T15:00:30.743Z,17.00
2022-09-16T15:03:02.780Z,16.80
2022-09-16T15:05:34.330Z,16.70
2022-09-16T15:08:14.456Z,16.60
2022-09-16T15:10:53.699Z,16.60
2022-09-16T15:13:23.923Z,16.80
2022-09-16T15:15:56.791Z,17.10
2022-09-16T15:18:28.523Z,17.50
2022-09-16T15:21:07.118Z,17.80
2022-09-16T15:23:39.657Z,18.00
2022-09-16T15:26:14.875Z,18.10
2022-09-16T15:28:57.492Z,18.20
2022-09-16T15:31:34.829Z,18.30
2022-09-16T15:34:05.815Z,18.30
2022-09-16T15:36:39.584Z,18.10
2022-09-16T15:39:24.790Z,17.80
2022-09-16T15:42:06.021Z,17.60
2022-09-16T15:44:37.373Z,17.30
2022-09-16T15:47:06.218Z,17.10
2022-09-16T15:49:38.752Z,16.90
2022-09-16T15:52:11.513Z,16.70
2022-09-16T15:54:48.930Z,16.40
2022-09-16T15:57:28.738Z,16.20
2022-09-16T16:00:09.367Z,16.00
2022-09-16T16:02:41.132Z,15.80
2022-09-16T16:05:12.262Z,15.60
2022-09-16T16:07:43.223Z,15.50
2022-09-16T16:10:19.599Z,15.30
2022-09-16T16:12:48.875Z,15.10
2022-09-16T16:15:18.873Z,15.00
2022-09-16T16:17:48.039Z,14.90
2022-09-16T16:20:17.027Z,14.80
2022-09-16T16:22:45.364Z,14.80
2022-09-16T16:25:15.499Z,14.80
2022-09-16T16:27:43.616Z,14.80
2022-09-16T16:30:12.699Z,14.80
2022-09-16T16:32:40.541Z,14.80
2022-09-16T16:35:09.186Z,14.80
2022-09-16T16:37:52.477Z,14.70
2022-09-16T16:40:21.739Z,14.70
2022-09-16T16:42:49.604Z,14.60
2022-09-16T16:45:17.644Z,14.60
2022-09-16T16:47:46.293Z,14.60
2022-09-16T16:50:14.731Z,14.50
2022-09-16T16:52:45.021Z,14.50
2022-09-16T16:55:12.911Z,14.40
2022-09-16T16:57:42.100Z,14.30
2022-09-16T17:00:11.685Z,14.20
2022-09-16T17:02:39.571Z,14.10
2022-09-16T17:05:08.318Z,14.00
2022-09-16T17:07:36.214Z,14.00
2022-09-16T17:10:04.505Z,13.90
2022-09-16T17:12:32.373Z,13.70
2022-09-16T17:15:01.606Z,13.70
2022-09-16T17:17:31.836Z,13.60
2022-09-16T17:20:00.250Z,13.50
2022-09-16T17:22:28.167Z,13.30
2022-09-16T17:24:56.518Z,13.30
2022-09-16T17:27:26.847Z,13.20
2022-09-16T17:29:54.858Z,13.10
2022-09-16T17:32:24.092Z,13.10
2022-09-16T17:34:52.016Z,13.00
2022-09-16T17:37:19.926Z,12.90
2022-09-16T17:39:48.578Z,12.90
2022-09-16T17:42:16.766Z,12.80
2022-09-16T17:44:44.635Z,12.70
2022-09-16T17:47:12.483Z,12.70
2022-09-16T17:49:41.727Z,12.60
2022-09-16T17:52:09.584Z,12.60
2022-09-16T17:54:37.413Z,12.50
2022-09-16T17:57:05.503Z,12.40
2022-09-16T17:59:33.357Z,12.40
2022-09-16T18:02:01.640Z,12.30
2022-09-16T18:04:29.548Z,12.30
2022-09-16T18:06:58.907Z,12.20
2022-09-16T18:09:26.743Z,12.20
2022-09-16T18:11:54.683Z,12.10
2022-09-16T18:14:23.553Z,12.10
2022-09-16T18:16:51.970Z,12.00
2022-09-16T18:19:20.047Z,12.00
2022-09-16T18:21:48.213Z,12.00
2022-09-16T18:24:17.860Z,11.90
2022-09-16T18:26:46.035Z,11.90
2022-09-16T18:29:14.769Z,11.90
2022-09-16T18:31:44.529Z,11.80
2022-09-16T18:34:13.638Z,11.80
2022-09-16T18:36:41.975Z,11.80
2022-09-16T18:39:14.238Z,11.70
2022-09-16T18:41:45.402Z,11.70
2022-09-16T18:44:15.441Z,11.70
2022-09-16T18:46:43.659Z,11.60
2022-09-16T18:49:13.629Z,11.60
2022-09-16T18:51:46.074Z,11.60
2022-09-16T18:54:20.236Z,11.60
2022-09-16T18:56:49.471Z,11.60
2022-09-16T18:59:21.978Z,11.60
2022-09-16T19:01:51.988Z,11.50
2022-09-16T19:04:22.081Z,11.50
2022-09-16T19:06:52.422Z,11.50
2022-09-16T19:09:22.863Z,11.50
2022-09-16T19:11:54.540Z,11.50
2022-09-16T19:14:24.698Z,11.50
2022-09-16T19:16:53.176Z,11.40
2022-09-16T19:19:22.039Z,11.40
2022-09-16T19:21:50.037Z,11.40
2022-09-16T19:24:21.234Z,11.40
2022-09-16T19:26:53.986Z,11.40
2022-09-16T19:29:22.819Z,11.40
2022-09-16T19:31:52.905Z,11.30
2022-09-16T19:34:21.941Z,11.30
2022-09-16T19:36:50.234Z,11.30
2022-09-16T19:39:18.323Z,11.30
2022-09-16T19:41:46.195Z,11.30
2022-09-16T19:44:17.858Z,11.30
2022-09-16T19:46:48.948Z,11.20
2022-09-16T19:49:19.220Z,11.20
2022-09-16T19:51:48.236Z,11.30
2022-09-16T19:54:16.194Z,11.30
2022-09-16T19:56:49.488Z,11.30
2022-09-16T19:59:20.387Z,11.30
2022-09-16T20:01:49.017Z,11.30
2022-09-16T20:04:19.452Z,11.30
2022-09-16T20:06:47.639Z,11.30
2022-09-16T20:09:15.496Z,11.30
2022-09-16T20:11:45.398Z,11.20
2022-09-16T20:14:15.847Z,11.20
2022-09-16T20:16:45.187Z,11.20
2022-09-16T20:19:15.317Z,11.10
2022-09-16T20:21:43.402Z,11.10
2022-09-16T20:24:15.351Z,11.10
2022-09-16T20:26:43.456Z,11.00
2022-09-16T20:29:11.324Z,11.00
2022-09-16T20:31:39.237Z,11.00
2022-09-16T20:34:08.532Z,10.90
2022-09-16T20:36:38.422Z,10.90
2022-09-16T20:39:08.834Z,10.90
2022-09-16T20:41:37.970Z,10.90
2022-09-16T20:44:06.675Z,10.80
2022-09-16T20:46:36.141Z,10.80
2022-09-16T20:49:09.348Z,10.80
2022-09-16T20:51:38.808Z,10.80
2022-09-16T20:54:08.947Z,10.80
2022-09-16T20:56:39.182Z,10.80
2022-09-16T20:59:08.082Z,10.70
2022-09-16T21:01:38.014Z,10.70
2022-09-16T21:04:07.479Z,10.70
2022-09-16T21:06:37.918Z,10.70
2022-09-16T21:09:08.821Z,10.70
2022-09-16T21:11:37.311Z,10.70
2022-09-16T21:14:07.708Z,10.60
2022-09-16T21:16:37.290Z,10.60
2022-09-16T21:19:09.134Z,10.60
2022-09-16T21:21:40.009Z,10.60
2022-09-16T21:24:09.613Z,10.60
2022-09-16T21:26:39.230Z,10.60
2022-09-16T21:29:10.803Z,10.50
2022-09-16T21:31:40.599Z,10.50
2022-09-16T21:34:13.061Z,10.50
2022-09-16T21:36:44.310Z,10.50
2022-09-16T21:39:13.470Z,10.50
2022-09-16T21:41:41.631Z,10.50
2022-09-16T21:44:09.730Z,10.50
2022-09-16T21:46:41.294Z,10.50
2022-09-16T21:49:19.133Z,10.50
2022-09-16T21:51:48.419Z,10.40
2022-09-16T21:54:20.101Z,10.40
2022-09-16T21:56:49.180Z,10.40
2022-09-16T21:59:17.423Z,10.40
2022-09-16T22:01:45.583Z,10.40
2022-09-16T22:04:15.237Z,10.40
2022-09-16T22:06:43.736Z,10.40
2022-09-16T22:09:13.368Z,10.40
2022-09-16T22:11:42.180Z,10.30
2022-09-16T22:14:11.038Z,10.30
2022-09-16T22:16:41.412Z,10.30
2022-09-16T22:19:11.436Z,10.30
2022-09-16T22:21:41.177Z,10.30
2022-09-16T22:24:10.156Z,10.30
2022-09-16T22:26:40.426Z,10.40
2022-09-16T22:29:09.313Z,10.40
2022-09-16T22:31:39.270Z,10.50
2022-09-16T22:34:07.254Z,10.50
2022-09-16T22:36:36.439Z,10.50
2022-09-16T22:39:06.641Z,10.50
2022-09-16T22:41:35.135Z,10.60
2022-09-16T22:44:05.037Z,10.60
2022-09-16T22:46:35.406Z,10.60
2022-09-16T22:49:03.616Z,10.60
2022-09-16T22:51:31.798Z,10.60
2022-09-16T22:53:59.816Z,10.60
2022-09-16T22:56:31.968Z,10.60
2022-09-16T22:59:01.222Z,10.60
2022-09-16T23:01:32.835Z,10.60
2022-09-16T23:04:02.974Z,10.60
2022-09-16T23:06:32.107Z,10.50
2022-09-16T23:09:00.723Z,10.50
2022-09-16T23:11:30.496Z,10.50
2022-09-16T23:13:59.236Z,10.50
2022-09-16T23:16:30.144Z,10.50
2022-09-16T23:19:01.060Z,10.50
2022-09-16T23:21:29.560Z,10.50
2022-09-16T23:23:59.965Z,10.50
2022-09-16T23:26:29.933Z,10.50
2022-09-16T23:28:59.244Z,10.40
2022-09-16T23:31:29.312Z,10.50
2022-09-16T23:33:59.575Z,10.40
2022-09-16T23:36:28.945Z,10.50
2022-09-16T23:38:57.102Z,10.50
2022-09-16T23:41:27.233Z,10.50
2022-09-16T23:43:56.433Z,10.50
2022-09-16T23:46:26.107Z,10.50
2022-09-16T23:48:54.355Z,10.50
2022-09-16T23:51:28.206Z,10.50
2022-09-16T23:53:57.217Z,10.60
2022-09-16T23:56:25.162Z,10.60
2022-09-16T23:58:53.451Z,10.60
